LC10 LYTV-LICR
Flight info
| Callsign | LC10 |
|---|---|
| Flight time | 0h 48m |
| Altitude | 300 |
| Route | KOFE3C ULFIG DIPOK CDC GIME2A |
| Aircraft | B733/M-V/N |
Departure
| Time | 2026-05-01 08:11 |
|---|---|
| Airport | Tivat Airport (LYTV) |
Arrival
| Time | 2026-05-01 08:59 |
|---|---|
| Airport | Reggio Calabria Airport (LICR) |
| Time | Latitude | Longitude | Altitude | Speed | Heading |
|---|---|---|---|---|---|
| 2026-05-01 08:10 | 42.40583 | 18.72193 | 17 ft | 147 kts | 320° |
| 2026-05-01 08:11 | 42.42237 | 18.70039 | 825 ft | 178 kts | 304° |
| 2026-05-01 08:11 | 42.41951 | 18.66919 | 1587 ft | 193 kts | 229° |
| 2026-05-01 08:12 | 42.39541 | 18.65381 | 2481 ft | 204 kts | 185° |
| 2026-05-01 08:12 | 42.38090 | 18.65187 | 2839 ft | 220 kts | 187° |
| 2026-05-01 08:12 | 42.35069 | 18.63859 | 3379 ft | 239 kts | 219° |
| 2026-05-01 08:13 | 42.33781 | 18.62504 | 3634 ft | 238 kts | 219° |
| 2026-05-01 08:13 | 42.32473 | 18.61123 | 3919 ft | 240 kts | 217° |
| 2026-05-01 08:13 | 42.29204 | 18.60791 | 4826 ft | 264 kts | 161° |
| 2026-05-01 08:14 | 42.27443 | 18.61588 | 5298 ft | 275 kts | 161° |
| 2026-05-01 08:14 | 42.25625 | 18.62415 | 5959 ft | 280 kts | 161° |
| 2026-05-01 08:14 | 42.23783 | 18.63248 | 6647 ft | 283 kts | 162° |
| 2026-05-01 08:14 | 42.21905 | 18.64058 | 7292 ft | 287 kts | 162° |
| 2026-05-01 08:15 | 42.19974 | 18.64885 | 7941 ft | 291 kts | 162° |
| 2026-05-01 08:15 | 42.16094 | 18.66547 | 9250 ft | 296 kts | 162° |
| 2026-05-01 08:15 | 42.14142 | 18.67383 | 9860 ft | 299 kts | 162° |
| 2026-05-01 08:16 | 42.12152 | 18.68235 | 10410 ft | 305 kts | 162° |
| 2026-05-01 08:16 | 42.10043 | 18.69138 | 10480 ft | 328 kts | 162° |
| 2026-05-01 08:16 | 42.07801 | 18.70062 | 10658 ft | 346 kts | 167° |
| 2026-05-01 08:16 | 42.05392 | 18.70206 | 11128 ft | 353 kts | 189° |
| 2026-05-01 08:17 | 42.02987 | 18.69522 | 11713 ft | 357 kts | 193° |
| 2026-05-01 08:17 | 42.00567 | 18.68771 | 12317 ft | 360 kts | 193° |
| 2026-05-01 08:17 | 41.98118 | 18.68016 | 12864 ft | 365 kts | 193° |
| 2026-05-01 08:17 | 41.95636 | 18.67255 | 13391 ft | 370 kts | 193° |
| 2026-05-01 08:18 | 41.93134 | 18.66426 | 13907 ft | 374 kts | 200° |
| 2026-05-01 08:18 | 41.88636 | 18.62893 | 14860 ft | 382 kts | 214° |
| 2026-05-01 08:19 | 41.84171 | 18.59031 | 15866 ft | 388 kts | 214° |
| 2026-05-01 08:19 | 41.81891 | 18.57069 | 16351 ft | 392 kts | 215° |
| 2026-05-01 08:19 | 41.79591 | 18.55095 | 16807 ft | 396 kts | 215° |
| 2026-05-01 08:19 | 41.77267 | 18.53103 | 17262 ft | 400 kts | 215° |
| 2026-05-01 08:20 | 41.74923 | 18.51095 | 17697 ft | 404 kts | 215° |
| 2026-05-01 08:20 | 41.72554 | 18.49068 | 18137 ft | 407 kts | 215° |
| 2026-05-01 08:20 | 41.70165 | 18.47027 | 18586 ft | 410 kts | 215° |
| 2026-05-01 08:20 | 41.67755 | 18.44969 | 19009 ft | 414 kts | 215° |
| 2026-05-01 08:21 | 41.65326 | 18.42896 | 19424 ft | 418 kts | 216° |
| 2026-05-01 08:21 | 41.62875 | 18.40807 | 19833 ft | 421 kts | 216° |
| 2026-05-01 08:21 | 41.60403 | 18.38702 | 20233 ft | 425 kts | 216° |
| 2026-05-01 08:21 | 41.57909 | 18.36579 | 20634 ft | 428 kts | 216° |
| 2026-05-01 08:22 | 41.55399 | 18.34444 | 21011 ft | 431 kts | 215° |
| 2026-05-01 08:22 | 41.52866 | 18.32282 | 21355 ft | 436 kts | 215° |
| 2026-05-01 08:22 | 41.50315 | 18.30111 | 21763 ft | 438 kts | 215° |
| 2026-05-01 08:22 | 41.47746 | 18.27929 | 22127 ft | 441 kts | 215° |
| 2026-05-01 08:23 | 41.45156 | 18.25735 | 22486 ft | 444 kts | 215° |
| 2026-05-01 08:23 | 41.42547 | 18.23528 | 22834 ft | 447 kts | 215° |
| 2026-05-01 08:23 | 41.39921 | 18.21308 | 23186 ft | 450 kts | 216° |
| 2026-05-01 08:23 | 41.37276 | 18.19074 | 23532 ft | 453 kts | 216° |
| 2026-05-01 08:24 | 41.34614 | 18.16829 | 23871 ft | 456 kts | 216° |
| 2026-05-01 08:24 | 41.31926 | 18.14563 | 24179 ft | 460 kts | 216° |
| 2026-05-01 08:24 | 41.29227 | 18.12291 | 24527 ft | 462 kts | 216° |
| 2026-05-01 08:24 | 41.26516 | 18.10011 | 24859 ft | 465 kts | 216° |
| 2026-05-01 08:25 | 41.23785 | 18.07717 | 25168 ft | 468 kts | 216° |
| 2026-05-01 08:25 | 41.21038 | 18.05411 | 25472 ft | 471 kts | 216° |
| 2026-05-01 08:25 | 41.18282 | 18.03099 | 25768 ft | 473 kts | 216° |
| 2026-05-01 08:25 | 41.15510 | 18.00778 | 26078 ft | 476 kts | 216° |
| 2026-05-01 08:26 | 41.12706 | 17.98431 | 26382 ft | 479 kts | 216° |
| 2026-05-01 08:26 | 41.09888 | 17.96075 | 26675 ft | 481 kts | 216° |
| 2026-05-01 08:26 | 41.07061 | 17.93714 | 26964 ft | 484 kts | 217° |
| 2026-05-01 08:26 | 41.04217 | 17.91341 | 27245 ft | 486 kts | 217° |
| 2026-05-01 08:27 | 41.01358 | 17.88959 | 27536 ft | 489 kts | 217° |
| 2026-05-01 08:27 | 40.98502 | 17.86582 | 27831 ft | 490 kts | 217° |
| 2026-05-01 08:27 | 40.95623 | 17.84188 | 28187 ft | 491 kts | 217° |
| 2026-05-01 08:27 | 40.92746 | 17.81798 | 28564 ft | 490 kts | 217° |
| 2026-05-01 08:28 | 40.89870 | 17.79411 | 28935 ft | 489 kts | 217° |
| 2026-05-01 08:28 | 40.87013 | 17.77051 | 29165 ft | 492 kts | 217° |
| 2026-05-01 08:28 | 40.84120 | 17.74665 | 29466 ft | 491 kts | 217° |
| 2026-05-01 08:28 | 40.81235 | 17.72284 | 29806 ft | 490 kts | 217° |
| 2026-05-01 08:29 | 40.78357 | 17.69906 | 30072 ft | 491 kts | 218° |
| 2026-05-01 08:29 | 40.75478 | 17.67529 | 30184 ft | 487 kts | 218° |
| 2026-05-01 08:29 | 40.72632 | 17.65184 | 30198 ft | 482 kts | 218° |
| 2026-05-01 08:30 | 40.66996 | 17.60543 | 30147 ft | 478 kts | 218° |
| 2026-05-01 08:30 | 40.61369 | 17.55916 | 30152 ft | 479 kts | 218° |
| 2026-05-01 08:31 | 40.55727 | 17.51288 | 30159 ft | 480 kts | 218° |
| 2026-05-01 08:31 | 40.50079 | 17.46665 | 30158 ft | 479 kts | 218° |
| 2026-05-01 08:32 | 40.44418 | 17.42085 | 30155 ft | 482 kts | 213° |
| 2026-05-01 08:32 | 40.38294 | 17.38488 | 30156 ft | 485 kts | 207° |
| 2026-05-01 08:33 | 40.32128 | 17.34980 | 30158 ft | 485 kts | 208° |
| 2026-05-01 08:33 | 40.25997 | 17.31404 | 30158 ft | 485 kts | 208° |
| 2026-05-01 08:34 | 40.19851 | 17.27834 | 30158 ft | 485 kts | 208° |
| 2026-05-01 08:34 | 40.13698 | 17.24275 | 30157 ft | 486 kts | 208° |
| 2026-05-01 08:35 | 40.07542 | 17.20722 | 30159 ft | 485 kts | 208° |
| 2026-05-01 08:35 | 40.01392 | 17.17179 | 30154 ft | 485 kts | 208° |
| 2026-05-01 08:36 | 39.95237 | 17.13640 | 30158 ft | 485 kts | 208° |
| 2026-05-01 08:36 | 39.89078 | 17.10106 | 30140 ft | 486 kts | 208° |
| 2026-05-01 08:37 | 39.82919 | 17.06594 | 30152 ft | 485 kts | 208° |
| 2026-05-01 08:37 | 39.76795 | 17.03096 | 30152 ft | 485 kts | 208° |
| 2026-05-01 08:38 | 39.70627 | 16.99577 | 30135 ft | 487 kts | 208° |
| 2026-05-01 08:38 | 39.64435 | 16.96051 | 30132 ft | 489 kts | 208° |
| 2026-05-01 08:39 | 39.58220 | 16.92520 | 30131 ft | 490 kts | 208° |
| 2026-05-01 08:39 | 39.51989 | 16.88986 | 30126 ft | 492 kts | 209° |
| 2026-05-01 08:40 | 39.42592 | 16.83670 | 30130 ft | 495 kts | 209° |
| 2026-05-01 08:40 | 39.36316 | 16.80129 | 30130 ft | 496 kts | 209° |
| 2026-05-01 08:41 | 39.29988 | 16.76566 | 30132 ft | 496 kts | 209° |
| 2026-05-01 08:41 | 39.23692 | 16.73026 | 30129 ft | 496 kts | 209° |
| 2026-05-01 08:42 | 39.17622 | 16.68976 | 30138 ft | 488 kts | 218° |
| 2026-05-01 08:42 | 39.11884 | 16.64485 | 30135 ft | 488 kts | 218° |
| 2026-05-01 08:43 | 39.06068 | 16.60026 | 30129 ft | 489 kts | 218° |
| 2026-05-01 08:43 | 39.00245 | 16.55590 | 30134 ft | 487 kts | 218° |
| 2026-05-01 08:44 | 38.97342 | 16.53383 | 29894 ft | 484 kts | 218° |
| 2026-05-01 08:44 | 38.94453 | 16.51187 | 29004 ft | 489 kts | 217° |
| 2026-05-01 08:44 | 38.91516 | 16.48950 | 27686 ft | 504 kts | 217° |
| 2026-05-01 08:44 | 38.88484 | 16.46649 | 26462 ft | 512 kts | 216° |
| 2026-05-01 08:45 | 38.85432 | 16.44353 | 25666 ft | 509 kts | 216° |
| 2026-05-01 08:45 | 38.82457 | 16.42111 | 25051 ft | 502 kts | 216° |
| 2026-05-01 08:45 | 38.79477 | 16.39861 | 24429 ft | 496 kts | 216° |
| 2026-05-01 08:45 | 38.76534 | 16.37636 | 23777 ft | 491 kts | 216° |
| 2026-05-01 08:46 | 38.73779 | 16.35112 | 23304 ft | 472 kts | 226° |
| 2026-05-01 08:46 | 38.71365 | 16.32466 | 23136 ft | 455 kts | 227° |
| 2026-05-01 08:46 | 38.68994 | 16.29861 | 22752 ft | 446 kts | 226° |
| 2026-05-01 08:46 | 38.66653 | 16.27319 | 22200 ft | 441 kts | 226° |
| 2026-05-01 08:47 | 38.64324 | 16.24807 | 21575 ft | 439 kts | 226° |
| 2026-05-01 08:47 | 38.61989 | 16.22296 | 20918 ft | 437 kts | 225° |
| 2026-05-01 08:47 | 38.59634 | 16.19771 | 20281 ft | 433 kts | 225° |
| 2026-05-01 08:47 | 38.57331 | 16.17302 | 19727 ft | 429 kts | 225° |
| 2026-05-01 08:48 | 38.55093 | 16.14907 | 19222 ft | 423 kts | 225° |
| 2026-05-01 08:48 | 38.52832 | 16.12490 | 18644 ft | 419 kts | 225° |
| 2026-05-01 08:48 | 38.50611 | 16.10119 | 18009 ft | 417 kts | 225° |
| 2026-05-01 08:48 | 38.48388 | 16.07749 | 17339 ft | 416 kts | 224° |
| 2026-05-01 08:49 | 38.46199 | 16.05417 | 16713 ft | 414 kts | 224° |
| 2026-05-01 08:49 | 38.43994 | 16.03063 | 16087 ft | 411 kts | 224° |
| 2026-05-01 08:49 | 38.41826 | 16.00749 | 15469 ft | 409 kts | 224° |
| 2026-05-01 08:49 | 38.39631 | 15.98408 | 14835 ft | 406 kts | 224° |
| 2026-05-01 08:50 | 38.37492 | 15.96126 | 14145 ft | 404 kts | 223° |
| 2026-05-01 08:50 | 38.35344 | 15.93838 | 13438 ft | 397 kts | 223° |
| 2026-05-01 08:50 | 38.33255 | 15.91614 | 12741 ft | 390 kts | 223° |
| 2026-05-01 08:50 | 38.31199 | 15.89428 | 12044 ft | 384 kts | 223° |
| 2026-05-01 08:51 | 38.29386 | 15.87011 | 11281 ft | 372 kts | 242° |
| 2026-05-01 08:51 | 38.28529 | 15.84005 | 10482 ft | 359 kts | 266° |
| 2026-05-01 08:51 | 38.28696 | 15.80930 | 9680 ft | 349 kts | 289° |
| 2026-05-01 08:51 | 38.29799 | 15.78236 | 8892 ft | 343 kts | 303° |
| 2026-05-01 08:52 | 38.30872 | 15.75545 | 8096 ft | 340 kts | 291° |
| 2026-05-01 08:52 | 38.31708 | 15.72759 | 7298 ft | 338 kts | 290° |
| 2026-05-01 08:52 | 38.32254 | 15.69887 | 6551 ft | 333 kts | 279° |
| 2026-05-01 08:52 | 38.32556 | 15.67028 | 6107 ft | 319 kts | 272° |
| 2026-05-01 08:53 | 38.32633 | 15.64258 | 5765 ft | 305 kts | 272° |
| 2026-05-01 08:53 | 38.32521 | 15.61635 | 5411 ft | 292 kts | 264° |
| 2026-05-01 08:53 | 38.32295 | 15.59082 | 5028 ft | 282 kts | 262° |
| 2026-05-01 08:53 | 38.31531 | 15.56855 | 4730 ft | 267 kts | 227° |
| 2026-05-01 08:54 | 38.30033 | 15.55606 | 4603 ft | 251 kts | 199° |
| 2026-05-01 08:54 | 38.28462 | 15.54915 | 4623 ft | 227 kts | 206° |
| 2026-05-01 08:54 | 38.26987 | 15.54558 | 4576 ft | 210 kts | 179° |
| 2026-05-01 08:54 | 38.25530 | 15.54692 | 4155 ft | 211 kts | 178° |
| 2026-05-01 08:55 | 38.24087 | 15.54845 | 3718 ft | 211 kts | 178° |
| 2026-05-01 08:55 | 38.22637 | 15.55120 | 3233 ft | 213 kts | 158° |
| 2026-05-01 08:55 | 38.21370 | 15.55930 | 3043 ft | 192 kts | 155° |
| 2026-05-01 08:55 | 38.20262 | 15.56649 | 2997 ft | 173 kts | 155° |
| 2026-05-01 08:56 | 38.19102 | 15.57398 | 2859 ft | 193 kts | 156° |
| 2026-05-01 08:56 | 38.17935 | 15.58151 | 2724 ft | 188 kts | 156° |
| 2026-05-01 08:56 | 38.16777 | 15.58900 | 2588 ft | 186 kts | 155° |
| 2026-05-01 08:56 | 38.15633 | 15.59641 | 2381 ft | 180 kts | 155° |
| 2026-05-01 08:57 | 38.14542 | 15.60348 | 2102 ft | 175 kts | 155° |
| 2026-05-01 08:57 | 38.13476 | 15.61040 | 1749 ft | 171 kts | 155° |
| 2026-05-01 08:57 | 38.12414 | 15.61729 | 1391 ft | 168 kts | 155° |
| 2026-05-01 08:57 | 38.11393 | 15.62392 | 1038 ft | 165 kts | 154° |
| 2026-05-01 08:58 | 38.10378 | 15.63051 | 726 ft | 163 kts | 154° |
| 2026-05-01 08:58 | 38.09392 | 15.63683 | 434 ft | 156 kts | 155° |
| 2026-05-01 08:58 | 38.08473 | 15.64276 | 221 ft | 136 kts | 154° |
| 2026-05-01 08:58 | 38.07613 | 15.64836 | 72 ft | 139 kts | 153° |
| 2026-05-01 08:59 | 38.06898 | 15.65296 | 42 ft | 82 kts | 150° |
| 2026-05-01 08:59 | 38.06621 | 15.65478 | 41 ft | 31 kts | 153° |
| 2026-05-01 08:59 | 38.06481 | 15.65640 | 48 ft | 18 kts | 188° |
| 2026-05-01 08:59 | 38.06577 | 15.65511 | 42 ft | 32 kts | 333° |
| 2026-05-01 09:00 | 38.06834 | 15.65339 | 40 ft | 45 kts | 332° |
| 2026-05-01 09:00 | 38.07103 | 15.65166 | 47 ft | 39 kts | 333° |
| 2026-05-01 09:00 | 38.07288 | 15.65101 | 56 ft | 16 kts | 50° |
| 2026-05-01 09:00 | 38.07336 | 15.65219 | 62 ft | 13 kts | 64° |
| 2026-05-01 09:01 | 38.07301 | 15.65287 | 62 ft | 9 kts | 95° |
| 2026-05-01 09:01 | 38.07309 | 15.65338 | 65 ft | 0 kts | 117° |